Pagina principale
METAR-TAF:

METAR-TAF

Aeroporti :

Genova, Italia

Aeroporto di Genova-Sestri

latitudine: 44-25N, longitudine: 008-51E, altezza: 2 m

Osservazione

Il bollettino è stato emesso 23 minuti fa, alle 15:20 UTC
Vento 6 kt da ovest, variando fra sud-ovest e ovest/nord-ovest
Temperature 24°C
Umidità 36%
Pressione 1017 hPa
Visibilità 10 km o più
nessuna nube inferiore a 1500 m e nessun cumulonembo

METAR: LIMJ 211520Z 27006KT 230V290 CAVOK 24/08 Q1017

Ora: 17:43 (15:43 UTC)

Previsione

Il bollettino è stato emesso 4 ore e 43 minuti fa, alle 11:00 UTC
Previsione valida dal 21 alle 12 UTC al 22 alle 12 UTC
Vento 8 kt da sud/sud-ovest
Visibilità 10 km o più
nessuna nube inferiore a 1500 m e nessun cumulonembo

TAF: LIMJ 211100Z 2112/2212 20008KT CAVOK

Osservazioni e previsioni meteorologiche di più di 4000 aeroporti (messaggi METAR e TAF).

Le stazioni disponibili sono rappresentate dai dischi gialli e rossi sulla carta.

Puntare il mouse per vedere il nome della stazione.

Clicca sopra per visualizzare le osservazioni e previsioni meteorologiche.

Per cambiare la mappa : fare clic sui pulsanti verdi con una croce nera per ingrandire, il pulsante verde con un trattino per diminuire, o sulla freccia verde per le mappe adiacenti.


METAR-TAF: